• Join FlightAware (Why Join?)
  • Login
  • US Flag 
Rudolph Flight #1: Scheduled 
11:48PM EST


 

Airport Tracker/Info


-or-


 

Live Flight TrackerFlight Track Log ✈ GJS3710 ✈ 20-Aug-2013 ✈ KORD - KPHL

Flight Track Log - Related Links

Times and Time Zones

All times are in EDT time to prevent confusion due to time zone crossing. See the GJS3710 flight status page for this flight to view local times or setup timezone preferences in your user account.

Time Position Orientation Groundspeed Altitude Reporting Facility
EDT Latitude Longitude Course Direction KTS MPH feet Rate Location/Type
10:05AM 41.9333 -87.9000 90° East 176 203 1,800  Level Chicago TRACON
10:06AM 41.9000 -87.8167 118° Southeast 250 288 3,600 2,220 Climbing Chicago TRACON
10:08AM 41.9347 -87.6408 75° East 287 330 8,500 2,460 Climbing Chicago Center
10:09AM 41.9575 -87.5381 73° East 295 339 11,200 2,520 Climbing Chicago Center
10:10AM 41.9550 -87.4036 91° East 301 346 13,800 1,680 Climbing Chicago Center
10:11AM 41.9333 -86.9954 90° East  Level FlightAware Approximate
10:11AM 41.9517 -87.2797 92° East 325 374 14,700  Level Chicago Center
10:12AM 41.9464 -87.1386 93° East 371 427 16,000 1,260 Climbing Chicago Center
10:13AM 41.9453 -86.9906 91° East 393 452 17,400 1,380 Climbing Chicago Center
10:14AM 41.9486 -86.8386 88° East 406 467 18,900 1,500 Climbing Chicago Center
10:15AM 41.9506 -86.6761 89° East 408 470 20,500 1,500 Climbing Chicago Center
10:17AM 41.9528 -86.5206 89° East 415 478 22,100 1,380 Climbing Chicago Center
10:18AM 41.9542 -86.3647 89° East 418 481 23,400 1,380 Climbing Chicago Center
10:19AM 41.9517 -86.1750 91° East 424 488 25,000 1,380 Climbing Chicago Center
10:20AM 41.9375 -86.0172 97° East 427 491 26,300 1,200 Climbing Chicago Center
10:21AM 41.9219 -85.8558 97° East 434 499 27,500 1,140 Climbing Chicago Center
10:22AM 41.9067 -85.6933 97° East 438 504 28,700 1,140 Climbing Chicago Center
10:23AM 41.8922 -85.5292 97° East 440 506 29,900 1,080 Climbing Chicago Center
10:24AM 41.8761 -85.3636 97° East 442 509 31,000 960 Climbing Chicago Center
10:25AM 41.8589 -85.1978 98° East 442 509 32,000 840 Climbing Chicago Center
10:26AM 41.8411 -85.0328 98° East 445 512 32,800 960 Climbing Chicago Center
10:27AM 41.8219 -84.8331 97° East 451 519 34,100 1,080 Climbing Chicago Center
10:28AM 41.8044 -84.6711 98° East 441 507 35,100 780 Climbing Chicago Center
10:29AM 41.7914 -84.5439 98° East 436 502 35,600 480 Climbing Cleveland Center
10:30AM 41.7783 -84.3786 96° East 436 502 36,000 360 Climbing Cleveland Center
10:31AM 41.7736 -84.1975 92° East 436 502 36,400 420 Climbing Cleveland Center
10:32AM 41.7686 -84.0244 92° East 448 516 36,900 600 Climbing Cleveland Center
10:33AM 41.7336 -83.8639 106° East 448 516 37,600 540 Climbing Cleveland Center
10:34AM 41.6944 -83.7061 108° East 448 516 38,000 300 Climbing Cleveland Center
10:35AM 41.6592 -83.5433 106° East 453 521 38,200 180 Climbing Cleveland Center
10:36AM 41.6192 -83.3831 108° East 453 521 38,400 180 Climbing Cleveland Center
10:37AM 41.5836 -83.2206 106° East 453 521 38,600 240 Climbing Cleveland Center
10:38AM 41.5492 -83.0747 107° East 447 514 38,900 180 Climbing Cleveland Center
10:39AM 41.5111 -82.9125 107° East 452 520 39,000  Climbing Cleveland Center
10:40AM 41.4667 -82.7278 108° East 457 526 39,000  Level Cleveland Center
10:41AM 41.4258 -82.5631 108° East 463 533 39,000  Level Cleveland Center
10:42AM 41.3847 -82.3958 108° East 471 542 39,000  Level Cleveland Center
10:43AM 41.3417 -82.2258 109° East 471 542 39,000  Level Cleveland Center
10:44AM 41.3022 -82.0508 107° East 476 548 39,000  Level Cleveland Center
10:45AM 41.2606 -81.8814 108° East 481 554 39,000  Level Cleveland Center
10:46AM 41.2186 -81.7094 108° East 486 559 39,000  Level Cleveland Center
10:47AM 41.1742 -81.5403 109° East 486 559 39,000  Level Cleveland Center
10:48AM 41.1256 -81.3686 111° Southeast 486 559 39,000  Level Cleveland Center
10:49AM 41.0828 -81.2003 109° East 486 559 39,000  Level Cleveland Center
10:50AM 41.0481 -81.0650 109° East 486 559 39,000  Level Cleveland Center
10:51AM 41.0047 -80.8803 107° East 486 559 39,000  Level Cleveland Center
10:52AM 40.9592 -80.7122 110° East 486 559 39,000  Level Cleveland Center
10:53AM 40.9178 -80.5447 108° East 486 559 39,000  Level Cleveland Center
10:54AM 40.8633 -80.3608 111° Southeast 486 559 39,000  Level Cleveland Center
10:55AM 40.8169 -80.1964 110° East 481 554 39,000  Level Cleveland Center
10:56AM 40.7600 -80.0375 115° Southeast 476 548 39,000  Level Cleveland Center
10:57AM 40.7092 -79.8875 114° Southeast 481 554 39,000  Level Cleveland Center
10:58AM 40.6519 -79.7264 115° Southeast 481 554 39,000  Level Cleveland Center
10:59AM 40.5922 -79.5658 116° Southeast 481 554 39,000  Level Cleveland Center
11:00AM 40.5322 -79.4083 117° Southeast 486 559 39,000  Level Cleveland Center
11:01AM 40.4822 -79.2236 110° East 486 559 39,000  Level Cleveland Center
11:02AM 40.4697 -79.0467 95° East 481 554 39,000 -1,080 Level Cleveland Center
11:03AM 40.4567 -78.8803 96° East 488 562 36,900 -2,400 Descending Cleveland Center
11:04AM 40.4436 -78.7006 95° East 493 567 34,200 -2,820 Descending Cleveland Center
11:05AM 40.4161 -78.3858 96° East 488 562 29,400 -2,820 Descending New York Center
11:06AM 40.3933 -78.2222 100° East 475 547 26,700 -2,220 Descending New York Center
11:07AM 40.3722 -78.0592 100° East 454 522 25,000 -900 Descending New York Center
11:08AM 40.3506 -77.9017 100° East 441 507 25,000 -720 Level New York Center
11:09AM 40.3306 -77.7469 100° East 435 501 23,600 -1,560 Descending New York Center
11:10AM 40.3103 -77.5925 100° East 435 501 21,900 -1,740 Descending New York Center
11:11AM 40.2908 -77.4572 101° East 430 495 20,200 -1,800 Descending New York Center
11:12AM 40.2686 -77.3000 100° East 411 473 18,400 -1,140 Descending New York Center
11:13AM 40.2503 -77.1731 101° East 399 459 18,000 -240 Descending New York Center
11:14AM 40.2272 -77.0214 101° East 386 444 18,000  Level New York Center
11:15AM 40.2078 -76.8783 100° East 391 450 18,000 -360 Level New York Center
11:16AM 40.1889 -76.7569 101° East 391 450 17,300 -1,020 Descending New York Center
11:17AM 40.1686 -76.6194 101° East 391 450 16,000 -1,380 Descending New York Center
11:18AM 40.1467 -76.4736 101° East 375 432 14,600 -1,380 Descending New York Center
11:19AM 40.1278 -76.3444 101° East 369 425 13,300 -1,260 Descending New York Center
11:20AM 40.1150 -76.2183 98° East 362 417 12,100 -1,260 Descending New York Center
11:21AM 40.1056 -76.1011 96° East 356 410 10,800 -1,200 Descending New York Center
11:22AM 40.0989 -75.9703 94° East 345 397 9,800 -1,320 Descending New York Center
11:23AM 40.0869 -75.8636 98° East 304 350 8,200 -900 Descending New York Center
11:24AM 40.0808 -75.7653 95° East 292 336 8,000 -120 Descending New York Center
11:25AM 40.0750 -75.6511 94° East 292 336 8,000 -300 Level New York Center
11:26AM 40.0708 -75.5531 93° East 292 336 7,500 -840 Descending New York Center
11:27AM 40.0647 -75.4414 94° East 292 336 6,400 -780 Descending New York Center
11:28AM 40.0622 -75.3517 92° East 287 330 6,000 -240 Descending New York Center
11:29AM 40.0431 -75.2528 104° East 279 321 6,000  Level New York Center
11:30AM 40.0333 -75.1833 100° East 234 269 6,000 -600 Level Philadelphia TRACON
11:31AM 40.0000 -75.1000 118° Southeast 241 277 5,000 -1,500 Descending Philadelphia TRACON
11:32AM 39.9667 -75.0500 131° Southeast 215 247 3,000 -1,200 Descending Philadelphia TRACON
11:33AM 39.9167 -75.0833 207° Southwest 168 193 2,600 -780 Descending Philadelphia TRACON
11:34AM 39.9000 -75.1167 237° Southwest 169 194 1,600 -960 Descending Philadelphia TRACON
11:35AM 39.8833 -75.1667 247° West 137 158 800 -840 Descending Philadelphia TRACON
11:38AM 39.8667 -75.2333 North  Level FlightAware Approximate